createdAt,value
2019-05-23T00:04:18.594Z,74.20
2019-05-23T00:09:21.843Z,74.20
2019-05-23T00:14:29.644Z,74.30
2019-05-23T00:19:32.616Z,74.40
2019-05-23T00:24:35.308Z,74.50
2019-05-23T00:29:40.393Z,74.40
2019-05-23T00:34:40.754Z,74.40
2019-05-23T00:39:43.578Z,74.10
2019-05-23T00:44:46.230Z,74.20
2019-05-23T00:49:48.945Z,74.10
2019-05-23T00:54:51.500Z,73.80
2019-05-23T00:59:54.048Z,74.10
2019-05-23T01:04:56.730Z,74.00
2019-05-23T01:09:59.362Z,73.80
2019-05-23T01:15:02.573Z,73.30
2019-05-23T01:20:06.176Z,73.60
2019-05-23T01:25:08.928Z,73.40
2019-05-23T01:30:12.822Z,73.50
2019-05-23T01:35:19.310Z,73.60
2019-05-23T01:40:21.982Z,73.70
2019-05-23T01:45:24.574Z,73.50
2019-05-23T01:50:27.256Z,73.90
2019-05-23T01:55:29.860Z,73.20
2019-05-23T02:00:32.566Z,73.90
2019-05-23T02:05:35.255Z,73.50
2019-05-23T02:10:38.154Z,73.60
2019-05-23T02:15:40.838Z,73.50
2019-05-23T02:20:43.482Z,73.40
2019-05-23T02:25:46.178Z,73.30
2019-05-23T02:30:48.906Z,73.20
2019-05-23T02:35:51.468Z,73.30
2019-05-23T02:40:58.558Z,73.30
2019-05-23T02:46:01.275Z,73.10
2019-05-23T02:51:04.917Z,72.90
2019-05-23T02:56:08.535Z,73.00
2019-05-23T03:01:25.156Z,73.00
2019-05-23T03:06:27.723Z,72.80
2019-05-23T03:11:33.408Z,72.40
2019-05-23T03:16:36.105Z,72.60
2019-05-23T03:21:38.779Z,72.60
2019-05-23T03:26:55.029Z,72.30
2019-05-23T03:32:13.082Z,72.10
2019-05-23T03:37:15.769Z,72.80
2019-05-23T03:42:18.432Z,72.60
2019-05-23T03:47:21.154Z,72.40
2019-05-23T03:52:23.830Z,72.60
2019-05-23T03:57:26.782Z,72.50
2019-05-23T04:02:29.488Z,72.90
2019-05-23T04:07:32.048Z,73.00
2019-05-23T04:12:34.682Z,72.80
2019-05-23T04:17:37.353Z,72.80
2019-05-23T04:22:40.022Z,73.40
2019-05-23T04:27:42.576Z,73.60
2019-05-23T04:32:45.160Z,74.00
2019-05-23T04:37:54.273Z,74.00
2019-05-23T04:42:56.988Z,74.40
2019-05-23T04:47:59.668Z,74.80
2019-05-23T04:53:02.256Z,74.80
2019-05-23T04:58:05.159Z,74.90
2019-05-23T05:03:07.640Z,75.10
2019-05-23T05:08:10.588Z,75.10
2019-05-23T05:13:13.248Z,74.70
2019-05-23T05:18:15.900Z,75.00
2019-05-23T05:23:18.403Z,74.90
2019-05-23T05:28:21.016Z,75.00
2019-05-23T05:33:23.617Z,74.80
2019-05-23T05:38:28.609Z,74.90
2019-05-23T05:43:28.969Z,74.40
2019-05-23T05:48:31.678Z,74.50
2019-05-23T05:53:34.470Z,75.00
2019-05-23T05:58:37.032Z,75.40
2019-05-23T06:03:39.777Z,75.10
2019-05-23T06:08:43.466Z,75.00
2019-05-23T06:13:46.102Z,74.80
2019-05-23T06:18:49.003Z,74.80
2019-05-23T06:23:51.996Z,74.90
2019-05-23T06:28:54.712Z,75.60
2019-05-23T06:33:57.412Z,75.40
2019-05-23T06:39:00.016Z,75.20
2019-05-23T06:44:02.758Z,75.00
2019-05-23T06:49:05.232Z,75.10
2019-05-23T06:54:07.958Z,75.40
2019-05-23T06:59:10.670Z,75.10
2019-05-23T07:04:13.327Z,75.10
2019-05-23T07:09:16.248Z,74.50
2019-05-23T07:14:18.909Z,74.70
2019-05-23T07:19:21.548Z,73.70
2019-05-23T07:24:24.488Z,71.30
2019-05-23T07:29:27.114Z,72.40
2019-05-23T07:34:29.693Z,69.10
2019-05-23T07:39:32.269Z,67.40
2019-05-23T07:44:47.367Z,68.50
2019-05-23T07:49:37.540Z,61.60
2019-05-23T07:54:49.591Z,61.40
2019-05-23T07:59:52.244Z,61.20
2019-05-23T08:04:54.918Z,60.60
2019-05-23T08:09:57.649Z,60.00
2019-05-23T08:15:00.248Z,71.80
2019-05-23T08:20:02.954Z,56.60
2019-05-23T08:25:05.566Z,59.00
2019-05-23T08:30:08.262Z,54.30
2019-05-23T08:35:15.671Z,53.40
2019-05-23T08:40:13.874Z,55.50
2019-05-23T08:45:16.880Z,57.70
2019-05-23T08:50:19.616Z,56.10
2019-05-23T08:55:22.359Z,60.20
2019-05-23T09:00:25.313Z,51.20
2019-05-23T09:05:28.245Z,52.30
2019-05-23T09:10:30.890Z,51.10
2019-05-23T09:15:33.468Z,50.40
2019-05-23T09:20:36.220Z,49.70
2019-05-23T09:25:38.812Z,46.30
2019-05-23T09:30:41.418Z,43.50
2019-05-23T09:35:44.014Z,48.00
2019-05-23T09:40:46.616Z,45.30
2019-05-23T09:45:49.174Z,43.60
2019-05-23T09:50:51.707Z,47.30
2019-05-23T09:55:55.884Z,45.40
2019-05-23T10:00:56.886Z,44.60
2019-05-23T10:05:59.464Z,45.20
2019-05-23T10:11:02.172Z,40.40
2019-05-23T10:16:06.807Z,39.00
2019-05-23T10:21:09.488Z,41.10
2019-05-23T10:26:12.396Z,40.20
2019-05-23T10:31:15.114Z,40.10
2019-05-23T10:36:17.797Z,38.10
2019-05-23T10:41:20.424Z,41.10
2019-05-23T10:46:22.964Z,39.00
2019-05-23T10:51:25.518Z,44.50
2019-05-23T10:56:28.070Z,42.40
2019-05-23T11:01:30.792Z,41.20
2019-05-23T11:06:33.402Z,42.40
2019-05-23T11:11:35.963Z,42.00
2019-05-23T11:16:38.859Z,43.10
2019-05-23T11:21:41.439Z,42.00
2019-05-23T11:26:44.156Z,39.20
2019-05-23T11:31:46.807Z,39.70
2019-05-23T11:36:49.393Z,37.10
2019-05-23T11:41:52.065Z,40.50
2019-05-23T11:46:54.708Z,40.20
2019-05-23T11:51:57.373Z,38.80
2019-05-23T11:57:00.041Z,37.40
2019-05-23T12:02:07.302Z,38.30
2019-05-23T12:07:13.542Z,37.80
2019-05-23T12:12:16.266Z,36.20
2019-05-23T12:17:18.930Z,35.70
2019-05-23T12:22:21.552Z,36.50
2019-05-23T12:27:24.273Z,38.30
2019-05-23T12:32:26.890Z,37.90
2019-05-23T12:37:29.581Z,37.30
2019-05-23T12:42:32.172Z,38.20
2019-05-23T12:47:47.903Z,37.30
2019-05-23T12:52:50.541Z,36.60
2019-05-23T12:57:53.107Z,36.70
2019-05-23T13:02:55.766Z,37.20
2019-05-23T13:07:58.501Z,37.50
2019-05-23T13:13:01.115Z,36.30
2019-05-23T13:18:03.925Z,36.80
2019-05-23T13:23:07.165Z,37.00
2019-05-23T13:28:09.352Z,36.90
2019-05-23T13:33:12.074Z,36.50
2019-05-23T13:38:14.638Z,36.70
2019-05-23T13:43:17.283Z,37.20
2019-05-23T13:48:19.923Z,36.70
2019-05-23T13:53:22.610Z,36.00
2019-05-23T13:58:25.229Z,35.40
2019-05-23T14:03:27.806Z,36.70
2019-05-23T14:08:30.357Z,35.60
2019-05-23T14:13:33.254Z,36.30
2019-05-23T14:18:36.747Z,36.40
2019-05-23T14:23:39.376Z,36.10
2019-05-23T14:28:42.461Z,39.00
2019-05-23T14:34:17.110Z,33.60
2019-05-23T14:39:26.176Z,34.10
2019-05-23T14:44:28.856Z,37.10
2019-05-23T14:49:33.866Z,35.90
2019-05-23T14:54:39.823Z,35.50
2019-05-23T14:59:42.503Z,35.10
2019-05-23T15:04:45.142Z,35.60
2019-05-23T15:09:47.688Z,36.40
2019-05-23T15:14:50.340Z,37.30
2019-05-23T15:19:52.968Z,39.50
2019-05-23T15:24:55.570Z,38.20
2019-05-23T15:29:58.180Z,36.70
2019-05-23T15:35:00.800Z,37.50
2019-05-23T15:40:03.782Z,37.10
2019-05-23T15:45:06.498Z,37.90
2019-05-23T15:50:11.294Z,38.70
2019-05-23T15:55:34.324Z,38.20
2019-05-23T16:00:42.522Z,37.70
2019-05-23T16:05:45.550Z,37.50
2019-05-23T16:10:48.234Z,38.60
2019-05-23T16:15:50.859Z,38.50
2019-05-23T16:20:53.430Z,38.10
2019-05-23T16:25:55.974Z,37.60
2019-05-23T16:30:58.657Z,38.50
2019-05-23T16:36:01.291Z,38.00
2019-05-23T16:41:04.174Z,38.60
2019-05-23T16:46:06.896Z,38.60
2019-05-23T16:51:09.577Z,39.30
2019-05-23T16:56:16.505Z,39.80
2019-05-23T17:01:28.608Z,39.90
2019-05-23T17:06:35.809Z,39.00
2019-05-23T17:11:43.109Z,39.30
2019-05-23T17:16:51.089Z,39.30
2019-05-23T17:23:00.115Z,40.20
2019-05-23T17:28:14.164Z,40.30
2019-05-23T17:33:16.868Z,40.80
2019-05-23T17:38:19.568Z,41.10
2019-05-23T17:43:22.194Z,41.10
2019-05-23T17:48:24.863Z,42.50
2019-05-23T17:53:27.469Z,43.00
2019-05-23T17:58:30.201Z,42.70
2019-05-23T18:03:33.003Z,42.60
2019-05-23T18:08:35.790Z,42.60
2019-05-23T18:13:38.536Z,43.00
2019-05-23T18:18:41.459Z,42.90
2019-05-23T18:23:44.146Z,42.30
2019-05-23T18:28:46.797Z,42.70
2019-05-23T18:33:49.666Z,44.70
2019-05-23T18:38:52.772Z,46.30
2019-05-23T18:43:55.346Z,45.60
2019-05-23T18:48:58.039Z,46.70
2019-05-23T18:54:00.715Z,47.60
2019-05-23T18:59:03.434Z,48.20
2019-05-23T19:04:06.104Z,49.40
2019-05-23T19:09:09.259Z,50.40
2019-05-23T19:14:11.978Z,50.40
2019-05-23T19:19:14.698Z,50.30
2019-05-23T19:24:17.378Z,51.00
2019-05-23T19:29:20.094Z,51.40
2019-05-23T19:34:22.724Z,51.60
2019-05-23T19:39:25.258Z,52.10
2019-05-23T19:44:27.852Z,52.70
2019-05-23T19:49:30.520Z,53.10
2019-05-23T19:54:33.116Z,53.10
2019-05-23T19:59:35.733Z,54.10
2019-05-23T20:04:40.150Z,54.50
2019-05-23T20:09:42.810Z,54.40
2019-05-23T20:14:45.359Z,54.40
2019-05-23T20:19:50.412Z,54.00
2019-05-23T20:24:50.582Z,53.40
2019-05-23T20:29:53.358Z,53.90
2019-05-23T20:34:56.051Z,54.60
2019-05-23T20:39:58.672Z,54.80
2019-05-23T20:45:01.236Z,54.90
2019-05-23T20:50:03.960Z,55.20
2019-05-23T20:55:06.676Z,55.50
2019-05-23T21:00:09.684Z,56.10
2019-05-23T21:05:12.404Z,56.60
2019-05-23T21:10:15.473Z,56.80
2019-05-23T21:15:18.045Z,56.70
2019-05-23T21:20:20.706Z,56.60
2019-05-23T21:25:23.246Z,56.70
2019-05-23T21:30:25.897Z,57.20
2019-05-23T21:35:28.444Z,57.60
2019-05-23T21:40:47.978Z,57.30
2019-05-23T21:45:50.614Z,58.00
2019-05-23T21:50:53.195Z,58.20
2019-05-23T21:55:55.854Z,58.80
2019-05-23T22:01:07.580Z,58.60
2019-05-23T22:06:10.450Z,59.00
2019-05-23T22:11:13.035Z,59.20
2019-05-23T22:16:15.724Z,59.30
2019-05-23T22:21:18.288Z,60.10
2019-05-23T22:26:20.954Z,60.60
2019-05-23T22:31:23.682Z,60.60
2019-05-23T22:36:26.341Z,61.10
2019-05-23T22:41:29.026Z,62.10
2019-05-23T22:46:31.740Z,61.60
2019-05-23T22:51:34.362Z,61.40
2019-05-23T22:56:43.135Z,61.20
2019-05-23T23:01:51.925Z,61.10
2019-05-23T23:07:02.238Z,60.80
2019-05-23T23:12:10.826Z,61.20
2019-05-23T23:17:19.724Z,61.20
2019-05-23T23:22:28.393Z,60.80
2019-05-23T23:27:37.273Z,61.10
2019-05-23T23:32:46.218Z,61.70
2019-05-23T23:37:55.054Z,61.70
2019-05-23T23:43:03.894Z,61.30
2019-05-23T23:48:18.475Z,61.40
2019-05-23T23:53:33.054Z,61.50
2019-05-23T23:58:41.247Z,62.20
